Profondeville, Belgium
Current Conditions -  °F | °C
As of 7:25 AM on Friday 31 Oct 2014 (Local Time) from EBFS Reporting Station
Few Clouds Few Clouds  
Wind Chill: 54°   Ceiling: Unl
Heat Index: 54°   Visibility: 6mi
Dew Point: 48°   Wind: 6mph
Humidity: 82%   Direction: 180°S
Pressure: 30.21"   Gusts: NA
Location:  50.38°N, 4.87°E
Report Text: EBFS 310625Z 18005KT 9999 FEW100 12/09 Q1023 BLU BLU
Loading
Personal Weather Stations






























Interactive Weather Map
Tropical Storm Tracking
New forecast layout! Learn more

10-Day Weather Forecast

Advertisements
Track Severe Weather on mobile